sensor_id;sensor_type;location;lat;lon;timestamp;P1;durP1;ratioP1;P2;durP2;ratioP2
1328;SDS011;658;48.820;9.354;2022-09-16T00:02:10;1.77;;;1.67;;
1328;SDS011;658;48.820;9.354;2022-09-16T00:06:29;1.50;;;1.40;;
1328;SDS011;658;48.820;9.354;2022-09-16T00:10:29;1.60;;;1.50;;
1328;SDS011;658;48.820;9.354;2022-09-16T00:14:30;1.53;;;1.43;;
1328;SDS011;658;48.820;9.354;2022-09-16T00:18:31;1.50;;;1.40;;
1328;SDS011;658;48.820;9.354;2022-09-16T00:22:31;1.60;;;1.50;;
1328;SDS011;658;48.820;9.354;2022-09-16T00:26:32;1.70;;;1.60;;
1328;SDS011;658;48.820;9.354;2022-09-16T00:30:33;1.70;;;1.60;;
1328;SDS011;658;48.820;9.354;2022-09-16T00:34:34;1.50;;;1.40;;
1328;SDS011;658;48.820;9.354;2022-09-16T00:38:35;1.50;;;1.40;;
1328;SDS011;658;48.820;9.354;2022-09-16T00:42:37;1.40;;;1.30;;
1328;SDS011;658;48.820;9.354;2022-09-16T00:46:39;1.90;;;1.80;;
1328;SDS011;658;48.820;9.354;2022-09-16T00:50:46;1.30;;;1.30;;
1328;SDS011;658;48.820;9.354;2022-09-16T00:54:50;1.60;;;1.50;;
1328;SDS011;658;48.820;9.354;2022-09-16T01:03:23;1.60;;;1.50;;
1328;SDS011;658;48.820;9.354;2022-09-16T01:07:26;1.70;;;1.60;;
1328;SDS011;658;48.820;9.354;2022-09-16T01:11:33;1.70;;;1.60;;
1328;SDS011;658;48.820;9.354;2022-09-16T01:19:49;1.60;;;1.50;;
1328;SDS011;658;48.820;9.354;2022-09-16T01:28:32;1.63;;;1.53;;
1328;SDS011;658;48.820;9.354;2022-09-16T01:37:11;1.90;;;1.50;;
1328;SDS011;658;48.820;9.354;2022-09-16T01:45:57;1.67;;;1.57;;
1328;SDS011;658;48.820;9.354;2022-09-16T01:50:05;1.80;;;1.70;;
1328;SDS011;658;48.820;9.354;2022-09-16T01:58:45;1.70;;;1.60;;
1328;SDS011;658;48.820;9.354;2022-09-16T02:03:07;1.60;;;1.47;;
1328;SDS011;658;48.820;9.354;2022-09-16T02:07:11;1.57;;;1.47;;
1328;SDS011;658;48.820;9.354;2022-09-16T02:11:16;1.67;;;1.57;;
1328;SDS011;658;48.820;9.354;2022-09-16T02:15:18;1.50;;;1.40;;
1328;SDS011;658;48.820;9.354;2022-09-16T02:19:25;1.60;;;1.60;;
1328;SDS011;658;48.820;9.354;2022-09-16T02:23:52;2.17;;;1.97;;
1328;SDS011;658;48.820;9.354;2022-09-16T02:27:56;1.60;;;1.50;;
1328;SDS011;658;48.820;9.354;2022-09-16T02:32:00;1.80;;;1.70;;
1328;SDS011;658;48.820;9.354;2022-09-16T02:36:04;1.33;;;1.30;;
1328;SDS011;658;48.820;9.354;2022-09-16T02:40:12;1.70;;;1.60;;
1328;SDS011;658;48.820;9.354;2022-09-16T02:44:34;1.40;;;1.30;;
1328;SDS011;658;48.820;9.354;2022-09-16T02:57:20;1.60;;;1.50;;
1328;SDS011;658;48.820;9.354;2022-09-16T03:01:21;1.90;;;1.80;;
1328;SDS011;658;48.820;9.354;2022-09-16T03:05:29;1.57;;;1.47;;
1328;SDS011;658;48.820;9.354;2022-09-16T03:09:30;1.50;;;1.40;;
1328;SDS011;658;48.820;9.354;2022-09-16T03:13:59;1.60;;;1.50;;
1328;SDS011;658;48.820;9.354;2022-09-16T03:18:12;1.70;;;1.60;;
1328;SDS011;658;48.820;9.354;2022-09-16T03:22:26;1.50;;;1.40;;
1328;SDS011;658;48.820;9.354;2022-09-16T03:26:46;1.53;;;1.43;;
1328;SDS011;658;48.820;9.354;2022-09-16T03:35:08;1.80;;;1.70;;
1328;SDS011;658;48.820;9.354;2022-09-16T03:39:15;1.47;;;1.37;;
1328;SDS011;658;48.820;9.354;2022-09-16T03:43:17;1.47;;;1.37;;
1328;SDS011;658;48.820;9.354;2022-09-16T03:47:17;1.53;;;1.43;;
1328;SDS011;658;48.820;9.354;2022-09-16T03:51:18;1.90;;;1.80;;
1328;SDS011;658;48.820;9.354;2022-09-16T03:55:18;1.60;;;1.50;;
1328;SDS011;658;48.820;9.354;2022-09-16T03:59:19;1.30;;;1.30;;
1328;SDS011;658;48.820;9.354;2022-09-16T04:03:20;1.60;;;1.50;;
1328;SDS011;658;48.820;9.354;2022-09-16T04:07:21;1.73;;;1.63;;
1328;SDS011;658;48.820;9.354;2022-09-16T04:11:21;1.73;;;1.63;;
1328;SDS011;658;48.820;9.354;2022-09-16T04:15:22;1.37;;;1.33;;
1328;SDS011;658;48.820;9.354;2022-09-16T04:19:23;1.70;;;1.60;;
1328;SDS011;658;48.820;9.354;2022-09-16T04:23:24;2.00;;;1.60;;
1328;SDS011;658;48.820;9.354;2022-09-16T04:27:25;1.80;;;1.70;;
1328;SDS011;658;48.820;9.354;2022-09-16T04:31:26;1.70;;;1.60;;
1328;SDS011;658;48.820;9.354;2022-09-16T04:35:27;1.80;;;1.70;;
1328;SDS011;658;48.820;9.354;2022-09-16T04:39:27;1.83;;;1.73;;
1328;SDS011;658;48.820;9.354;2022-09-16T04:43:28;1.60;;;1.50;;
1328;SDS011;658;48.820;9.354;2022-09-16T04:47:29;1.57;;;1.47;;
1328;SDS011;658;48.820;9.354;2022-09-16T04:51:29;1.67;;;1.57;;
1328;SDS011;658;48.820;9.354;2022-09-16T04:55:31;2.00;;;1.90;;
1328;SDS011;658;48.820;9.354;2022-09-16T04:59:32;1.80;;;1.70;;
1328;SDS011;658;48.820;9.354;2022-09-16T05:03:33;1.57;;;1.47;;
1328;SDS011;658;48.820;9.354;2022-09-16T05:07:33;1.90;;;1.80;;
1328;SDS011;658;48.820;9.354;2022-09-16T05:11:35;1.87;;;1.60;;
1328;SDS011;658;48.820;9.354;2022-09-16T05:15:37;1.87;;;1.77;;
1328;SDS011;658;48.820;9.354;2022-09-16T05:19:38;1.47;;;1.37;;
1328;SDS011;658;48.820;9.354;2022-09-16T05:23:38;1.73;;;1.63;;
1328;SDS011;658;48.820;9.354;2022-09-16T05:27:40;1.80;;;1.70;;
1328;SDS011;658;48.820;9.354;2022-09-16T05:31:41;1.70;;;1.60;;
1328;SDS011;658;48.820;9.354;2022-09-16T05:35:42;1.67;;;1.57;;
1328;SDS011;658;48.820;9.354;2022-09-16T05:39:44;1.80;;;1.70;;
1328;SDS011;658;48.820;9.354;2022-09-16T05:43:45;1.47;;;1.37;;
1328;SDS011;658;48.820;9.354;2022-09-16T05:47:46;2.30;;;1.67;;
1328;SDS011;658;48.820;9.354;2022-09-16T05:51:48;1.80;;;1.70;;
1328;SDS011;658;48.820;9.354;2022-09-16T05:59:57;1.90;;;1.50;;
1328;SDS011;658;48.820;9.354;2022-09-16T06:03:59;1.67;;;1.57;;
1328;SDS011;658;48.820;9.354;2022-09-16T06:08:01;1.77;;;1.67;;
1328;SDS011;658;48.820;9.354;2022-09-16T06:12:02;1.80;;;1.70;;
1328;SDS011;658;48.820;9.354;2022-09-16T06:16:03;2.07;;;1.80;;
1328;SDS011;658;48.820;9.354;2022-09-16T06:20:05;1.90;;;1.57;;
1328;SDS011;658;48.820;9.354;2022-09-16T06:24:06;1.70;;;1.60;;
1328;SDS011;658;48.820;9.354;2022-09-16T06:28:07;2.30;;;1.50;;
1328;SDS011;658;48.820;9.354;2022-09-16T06:32:10;2.40;;;1.87;;
1328;SDS011;658;48.820;9.354;2022-09-16T06:36:14;1.50;;;1.40;;
1328;SDS011;658;48.820;9.354;2022-09-16T06:40:17;1.80;;;1.70;;
1328;SDS011;658;48.820;9.354;2022-09-16T06:44:17;2.23;;;1.90;;
1328;SDS011;658;48.820;9.354;2022-09-16T06:48:18;1.80;;;1.70;;
1328;SDS011;658;48.820;9.354;2022-09-16T06:52:19;1.90;;;1.80;;
1328;SDS011;658;48.820;9.354;2022-09-16T06:56:19;1.87;;;1.53;;
1328;SDS011;658;48.820;9.354;2022-09-16T07:00:21;1.70;;;1.60;;
1328;SDS011;658;48.820;9.354;2022-09-16T07:04:21;2.10;;;1.63;;
1328;SDS011;658;48.820;9.354;2022-09-16T07:08:22;1.67;;;1.50;;
1328;SDS011;658;48.820;9.354;2022-09-16T07:12:24;2.23;;;1.87;;
1328;SDS011;658;48.820;9.354;2022-09-16T07:16:24;2.33;;;1.80;;
1328;SDS011;658;48.820;9.354;2022-09-16T07:20:25;2.60;;;2.10;;
1328;SDS011;658;48.820;9.354;2022-09-16T07:24:26;1.50;;;1.40;;
1328;SDS011;658;48.820;9.354;2022-09-16T07:28:27;1.60;;;1.50;;
1328;SDS011;658;48.820;9.354;2022-09-16T07:32:27;1.53;;;1.43;;
1328;SDS011;658;48.820;9.354;2022-09-16T07:36:29;1.70;;;1.60;;
1328;SDS011;658;48.820;9.354;2022-09-16T07:40:32;1.97;;;1.80;;
1328;SDS011;658;48.820;9.354;2022-09-16T07:44:33;1.57;;;1.20;;
1328;SDS011;658;48.820;9.354;2022-09-16T07:48:33;1.50;;;1.40;;
1328;SDS011;658;48.820;9.354;2022-09-16T07:52:34;1.93;;;1.80;;
1328;SDS011;658;48.820;9.354;2022-09-16T07:56:35;1.73;;;1.63;;
1328;SDS011;658;48.820;9.354;2022-09-16T08:00:37;2.43;;;1.60;;
1328;SDS011;658;48.820;9.354;2022-09-16T08:04:38;1.70;;;1.60;;
1328;SDS011;658;48.820;9.354;2022-09-16T08:08:39;3.97;;;1.47;;
1328;SDS011;658;48.820;9.354;2022-09-16T08:12:40;2.50;;;1.60;;
1328;SDS011;658;48.820;9.354;2022-09-16T08:16:40;1.40;;;1.30;;
1328;SDS011;658;48.820;9.354;2022-09-16T08:20:41;1.80;;;1.50;;
1328;SDS011;658;48.820;9.354;2022-09-16T08:24:42;3.80;;;1.60;;
1328;SDS011;658;48.820;9.354;2022-09-16T08:28:43;2.00;;;1.57;;
1328;SDS011;658;48.820;9.354;2022-09-16T08:32:45;2.03;;;1.70;;
1328;SDS011;658;48.820;9.354;2022-09-16T08:36:46;2.73;;;1.50;;
1328;SDS011;658;48.820;9.354;2022-09-16T08:40:46;2.17;;;1.40;;
1328;SDS011;658;48.820;9.354;2022-09-16T08:44:53;3.77;;;1.90;;
1328;SDS011;658;48.820;9.354;2022-09-16T08:49:37;3.67;;;1.93;;
1328;SDS011;658;48.820;9.354;2022-09-16T08:54:05;6.90;;;2.33;;
1328;SDS011;658;48.820;9.354;2022-09-16T09:07:05;4.00;;;1.90;;
1328;SDS011;658;48.820;9.354;2022-09-16T09:11:31;3.63;;;1.80;;
1328;SDS011;658;48.820;9.354;2022-09-16T09:32:53;3.17;;;2.00;;
1328;SDS011;658;48.820;9.354;2022-09-16T09:41:22;2.27;;;1.40;;
1328;SDS011;658;48.820;9.354;2022-09-16T09:45:31;1.67;;;1.33;;
1328;SDS011;658;48.820;9.354;2022-09-16T09:49:37;2.43;;;1.73;;
1328;SDS011;658;48.820;9.354;2022-09-16T09:53:43;2.90;;;1.37;;
1328;SDS011;658;48.820;9.354;2022-09-16T09:57:58;3.37;;;1.83;;
1328;SDS011;658;48.820;9.354;2022-09-16T10:02:11;1.47;;;1.37;;
1328;SDS011;658;48.820;9.354;2022-09-16T10:06:16;1.97;;;1.80;;
1328;SDS011;658;48.820;9.354;2022-09-16T10:10:22;3.97;;;1.60;;
1328;SDS011;658;48.820;9.354;2022-09-16T10:14:26;2.03;;;1.37;;
1328;SDS011;658;48.820;9.354;2022-09-16T10:18:30;1.93;;;1.43;;
1328;SDS011;658;48.820;9.354;2022-09-16T10:22:32;1.87;;;1.77;;
1328;SDS011;658;48.820;9.354;2022-09-16T10:26:38;1.50;;;1.30;;
1328;SDS011;658;48.820;9.354;2022-09-16T10:30:44;1.57;;;1.47;;
1328;SDS011;658;48.820;9.354;2022-09-16T10:34:51;2.80;;;1.77;;
1328;SDS011;658;48.820;9.354;2022-09-16T10:38:52;1.60;;;1.50;;
1328;SDS011;658;48.820;9.354;2022-09-16T10:42:57;1.63;;;1.40;;
1328;SDS011;658;48.820;9.354;2022-09-16T10:47:04;1.60;;;1.50;;
1328;SDS011;658;48.820;9.354;2022-09-16T10:55:27;3.70;;;1.63;;
1328;SDS011;658;48.820;9.354;2022-09-16T10:59:31;1.63;;;1.40;;
1328;SDS011;658;48.820;9.354;2022-09-16T11:08:21;1.40;;;1.30;;
1328;SDS011;658;48.820;9.354;2022-09-16T11:17:24;1.97;;;1.37;;
1328;SDS011;658;48.820;9.354;2022-09-16T11:21:50;1.37;;;1.27;;
1328;SDS011;658;48.820;9.354;2022-09-16T11:26:15;2.27;;;1.27;;
1328;SDS011;658;48.820;9.354;2022-09-16T11:30:20;1.90;;;1.70;;
1328;SDS011;658;48.820;9.354;2022-09-16T11:42:42;1.60;;;1.50;;
1328;SDS011;658;48.820;9.354;2022-09-16T11:47:12;1.93;;;1.20;;
1328;SDS011;658;48.820;9.354;2022-09-16T11:56:17;1.53;;;1.40;;
1328;SDS011;658;48.820;9.354;2022-09-16T12:00:18;1.83;;;1.20;;
1328;SDS011;658;48.820;9.354;2022-09-16T12:04:33;1.40;;;1.30;;
1328;SDS011;658;48.820;9.354;2022-09-16T12:08:47;1.63;;;1.30;;
1328;SDS011;658;48.820;9.354;2022-09-16T12:12:57;1.73;;;1.40;;
1328;SDS011;658;48.820;9.354;2022-09-16T12:21:27;1.50;;;1.33;;
1328;SDS011;658;48.820;9.354;2022-09-16T12:29:52;1.20;;;1.10;;
1328;SDS011;658;48.820;9.354;2022-09-16T12:33:58;1.57;;;1.30;;
1328;SDS011;658;48.820;9.354;2022-09-16T12:38:16;2.93;;;1.57;;
1328;SDS011;658;48.820;9.354;2022-09-16T12:51:16;1.70;;;1.47;;
1328;SDS011;658;48.820;9.354;2022-09-16T12:55:40;1.47;;;1.37;;
1328;SDS011;658;48.820;9.354;2022-09-16T12:59:57;1.50;;;1.40;;
1328;SDS011;658;48.820;9.354;2022-09-16T13:08:21;1.17;;;1.07;;
1328;SDS011;658;48.820;9.354;2022-09-16T13:12:25;1.70;;;1.27;;
1328;SDS011;658;48.820;9.354;2022-09-16T13:16:31;2.33;;;1.37;;
1328;SDS011;658;48.820;9.354;2022-09-16T13:20:35;1.10;;;1.00;;
1328;SDS011;658;48.820;9.354;2022-09-16T13:24:40;1.60;;;1.17;;
1328;SDS011;658;48.820;9.354;2022-09-16T13:28:45;2.60;;;1.20;;
1328;SDS011;658;48.820;9.354;2022-09-16T13:36:51;1.30;;;1.30;;
1328;SDS011;658;48.820;9.354;2022-09-16T13:41:01;1.80;;;1.20;;
1328;SDS011;658;48.820;9.354;2022-09-16T13:45:02;1.47;;;1.20;;
1328;SDS011;658;48.820;9.354;2022-09-16T13:53:17;1.20;;;1.10;;
1328;SDS011;658;48.820;9.354;2022-09-16T14:01:37;1.97;;;1.70;;
1328;SDS011;658;48.820;9.354;2022-09-16T14:06:09;2.47;;;1.40;;
1328;SDS011;658;48.820;9.354;2022-09-16T14:10:22;3.50;;;1.80;;
1328;SDS011;658;48.820;9.354;2022-09-16T14:15:03;7.50;;;1.40;;
1328;SDS011;658;48.820;9.354;2022-09-16T14:23:27;1.47;;;1.37;;
1328;SDS011;658;48.820;9.354;2022-09-16T14:27:29;1.40;;;1.30;;
1328;SDS011;658;48.820;9.354;2022-09-16T14:31:38;1.30;;;1.20;;
1328;SDS011;658;48.820;9.354;2022-09-16T14:35:45;1.17;;;1.10;;
1328;SDS011;658;48.820;9.354;2022-09-16T14:39:47;1.60;;;1.30;;
1328;SDS011;658;48.820;9.354;2022-09-16T14:43:48;2.17;;;1.30;;
1328;SDS011;658;48.820;9.354;2022-09-16T14:47:50;1.20;;;1.10;;
1328;SDS011;658;48.820;9.354;2022-09-16T14:51:57;1.13;;;1.03;;
1328;SDS011;658;48.820;9.354;2022-09-16T14:56:01;1.53;;;1.43;;
1328;SDS011;658;48.820;9.354;2022-09-16T15:00:03;1.10;;;1.00;;
1328;SDS011;658;48.820;9.354;2022-09-16T15:04:13;1.53;;;1.43;;
1328;SDS011;658;48.820;9.354;2022-09-16T15:08:24;1.27;;;0.97;;
1328;SDS011;658;48.820;9.354;2022-09-16T15:12:31;1.40;;;1.30;;
1328;SDS011;658;48.820;9.354;2022-09-16T15:16:38;1.10;;;1.00;;
1328;SDS011;658;48.820;9.354;2022-09-16T15:25:03;1.50;;;1.23;;
1328;SDS011;658;48.820;9.354;2022-09-16T15:29:06;1.30;;;1.20;;
1328;SDS011;658;48.820;9.354;2022-09-16T15:33:39;1.40;;;1.13;;
1328;SDS011;658;48.820;9.354;2022-09-16T15:37:40;1.73;;;1.40;;
1328;SDS011;658;48.820;9.354;2022-09-16T15:41:41;1.27;;;1.20;;
1328;SDS011;658;48.820;9.354;2022-09-16T15:45:42;1.77;;;1.20;;
1328;SDS011;658;48.820;9.354;2022-09-16T15:49:44;2.67;;;1.30;;
1328;SDS011;658;48.820;9.354;2022-09-16T15:53:49;3.80;;;1.30;;
1328;SDS011;658;48.820;9.354;2022-09-16T15:57:51;5.57;;;1.50;;
1328;SDS011;658;48.820;9.354;2022-09-16T16:01:58;3.70;;;1.70;;
1328;SDS011;658;48.820;9.354;2022-09-16T16:06:04;4.13;;;1.70;;
1328;SDS011;658;48.820;9.354;2022-09-16T16:10:25;2.67;;;1.30;;
1328;SDS011;658;48.820;9.354;2022-09-16T16:14:30;1.43;;;1.20;;
1328;SDS011;658;48.820;9.354;2022-09-16T16:18:31;2.93;;;1.13;;
1328;SDS011;658;48.820;9.354;2022-09-16T16:22:33;1.37;;;1.10;;
1328;SDS011;658;48.820;9.354;2022-09-16T16:26:33;1.27;;;1.10;;
1328;SDS011;658;48.820;9.354;2022-09-16T16:30:34;4.23;;;1.67;;
1328;SDS011;658;48.820;9.354;2022-09-16T16:34:39;2.73;;;1.50;;
1328;SDS011;658;48.820;9.354;2022-09-16T16:38:41;1.30;;;1.20;;
1328;SDS011;658;48.820;9.354;2022-09-16T16:42:42;1.73;;;1.17;;
1328;SDS011;658;48.820;9.354;2022-09-16T16:46:43;2.07;;;1.47;;
1328;SDS011;658;48.820;9.354;2022-09-16T16:50:52;1.83;;;1.10;;
1328;SDS011;658;48.820;9.354;2022-09-16T16:54:57;2.03;;;1.37;;
1328;SDS011;658;48.820;9.354;2022-09-16T16:58:57;1.30;;;1.20;;
1328;SDS011;658;48.820;9.354;2022-09-16T17:02:58;1.33;;;1.23;;
1328;SDS011;658;48.820;9.354;2022-09-16T17:06:59;2.30;;;1.53;;
1328;SDS011;658;48.820;9.354;2022-09-16T17:11:11;1.70;;;1.30;;
1328;SDS011;658;48.820;9.354;2022-09-16T17:15:12;2.57;;;1.47;;
1328;SDS011;658;48.820;9.354;2022-09-16T17:19:14;1.20;;;1.10;;
1328;SDS011;658;48.820;9.354;2022-09-16T17:23:16;2.70;;;1.73;;
1328;SDS011;658;48.820;9.354;2022-09-16T17:27:16;2.40;;;1.30;;
1328;SDS011;658;48.820;9.354;2022-09-16T17:31:21;2.33;;;1.03;;
1328;SDS011;658;48.820;9.354;2022-09-16T17:35:23;3.33;;;1.40;;
1328;SDS011;658;48.820;9.354;2022-09-16T17:39:24;1.70;;;1.60;;
1328;SDS011;658;48.820;9.354;2022-09-16T17:43:25;3.40;;;1.73;;
1328;SDS011;658;48.820;9.354;2022-09-16T17:47:25;1.50;;;1.30;;
1328;SDS011;658;48.820;9.354;2022-09-16T17:51:26;1.67;;;1.40;;
1328;SDS011;658;48.820;9.354;2022-09-16T17:55:27;1.43;;;1.20;;
1328;SDS011;658;48.820;9.354;2022-09-16T17:59:27;3.03;;;1.30;;
1328;SDS011;658;48.820;9.354;2022-09-16T18:03:28;1.83;;;1.50;;
1328;SDS011;658;48.820;9.354;2022-09-16T18:07:29;1.30;;;1.20;;
1328;SDS011;658;48.820;9.354;2022-09-16T18:11:29;1.30;;;1.23;;
1328;SDS011;658;48.820;9.354;2022-09-16T18:15:30;1.60;;;1.27;;
1328;SDS011;658;48.820;9.354;2022-09-16T18:19:31;1.40;;;1.00;;
1328;SDS011;658;48.820;9.354;2022-09-16T18:23:31;2.10;;;1.20;;
1328;SDS011;658;48.820;9.354;2022-09-16T18:27:32;1.53;;;1.20;;
1328;SDS011;658;48.820;9.354;2022-09-16T18:31:33;2.00;;;1.33;;
1328;SDS011;658;48.820;9.354;2022-09-16T18:35:34;1.40;;;1.30;;
1328;SDS011;658;48.820;9.354;2022-09-16T18:39:36;1.87;;;1.30;;
1328;SDS011;658;48.820;9.354;2022-09-16T18:43:37;1.07;;;1.07;;
1328;SDS011;658;48.820;9.354;2022-09-16T18:47:39;1.40;;;1.30;;
1328;SDS011;658;48.820;9.354;2022-09-16T18:51:40;1.20;;;1.10;;
1328;SDS011;658;48.820;9.354;2022-09-16T18:55:43;1.27;;;1.17;;
1328;SDS011;658;48.820;9.354;2022-09-16T18:59:44;1.73;;;1.27;;
1328;SDS011;658;48.820;9.354;2022-09-16T19:03:45;1.80;;;1.27;;
1328;SDS011;658;48.820;9.354;2022-09-16T19:07:46;2.10;;;1.50;;
1328;SDS011;658;48.820;9.354;2022-09-16T19:11:47;1.30;;;1.20;;
1328;SDS011;658;48.820;9.354;2022-09-16T19:15:48;1.60;;;1.10;;
1328;SDS011;658;48.820;9.354;2022-09-16T19:19:54;0.97;;;0.87;;
1328;SDS011;658;48.820;9.354;2022-09-16T19:23:58;1.87;;;1.40;;
1328;SDS011;658;48.820;9.354;2022-09-16T19:28:01;1.20;;;1.10;;
1328;SDS011;658;48.820;9.354;2022-09-16T19:32:02;1.90;;;1.33;;
1328;SDS011;658;48.820;9.354;2022-09-16T19:36:13;1.87;;;1.13;;
1328;SDS011;658;48.820;9.354;2022-09-16T19:40:33;1.13;;;1.03;;
1328;SDS011;658;48.820;9.354;2022-09-16T19:44:34;1.57;;;1.20;;
1328;SDS011;658;48.820;9.354;2022-09-16T19:48:35;1.13;;;1.13;;
1328;SDS011;658;48.820;9.354;2022-09-16T19:52:37;2.30;;;1.30;;
1328;SDS011;658;48.820;9.354;2022-09-16T19:56:39;1.20;;;1.10;;
1328;SDS011;658;48.820;9.354;2022-09-16T20:00:41;1.30;;;1.03;;
1328;SDS011;658;48.820;9.354;2022-09-16T20:04:41;1.43;;;1.10;;
1328;SDS011;658;48.820;9.354;2022-09-16T20:08:43;3.37;;;0.90;;
1328;SDS011;658;48.820;9.354;2022-09-16T20:12:44;1.20;;;1.10;;
1328;SDS011;658;48.820;9.354;2022-09-16T20:16:45;0.90;;;0.90;;
1328;SDS011;658;48.820;9.354;2022-09-16T20:20:47;1.50;;;1.20;;
1328;SDS011;658;48.820;9.354;2022-09-16T20:24:47;1.83;;;1.30;;
1328;SDS011;658;48.820;9.354;2022-09-16T20:28:49;1.80;;;1.40;;
1328;SDS011;658;48.820;9.354;2022-09-16T20:32:51;1.30;;;1.20;;
1328;SDS011;658;48.820;9.354;2022-09-16T20:36:52;1.23;;;1.10;;
1328;SDS011;658;48.820;9.354;2022-09-16T20:40:52;0.97;;;0.90;;
1328;SDS011;658;48.820;9.354;2022-09-16T20:44:53;1.10;;;1.10;;
1328;SDS011;658;48.820;9.354;2022-09-16T20:48:58;1.20;;;1.13;;
1328;SDS011;658;48.820;9.354;2022-09-16T20:53:00;1.10;;;1.00;;
1328;SDS011;658;48.820;9.354;2022-09-16T20:57:01;1.00;;;1.00;;
1328;SDS011;658;48.820;9.354;2022-09-16T21:01:05;1.67;;;1.20;;
1328;SDS011;658;48.820;9.354;2022-09-16T21:05:11;1.00;;;1.00;;
1328;SDS011;658;48.820;9.354;2022-09-16T21:09:12;1.40;;;1.30;;
1328;SDS011;658;48.820;9.354;2022-09-16T21:13:14;1.97;;;1.07;;
1328;SDS011;658;48.820;9.354;2022-09-16T21:17:14;1.23;;;1.13;;
1328;SDS011;658;48.820;9.354;2022-09-16T21:21:18;1.17;;;1.00;;
1328;SDS011;658;48.820;9.354;2022-09-16T21:25:19;1.33;;;1.10;;
1328;SDS011;658;48.820;9.354;2022-09-16T21:29:20;1.10;;;1.00;;
1328;SDS011;658;48.820;9.354;2022-09-16T21:33:21;1.03;;;1.00;;
1328;SDS011;658;48.820;9.354;2022-09-16T21:37:21;1.27;;;1.17;;
1328;SDS011;658;48.820;9.354;2022-09-16T21:41:22;0.90;;;0.90;;
1328;SDS011;658;48.820;9.354;2022-09-16T21:45:23;1.13;;;1.03;;
1328;SDS011;658;48.820;9.354;2022-09-16T21:49:24;1.30;;;1.00;;
1328;SDS011;658;48.820;9.354;2022-09-16T21:53:24;0.90;;;0.90;;
1328;SDS011;658;48.820;9.354;2022-09-16T21:57:25;1.00;;;1.00;;
1328;SDS011;658;48.820;9.354;2022-09-16T22:01:26;1.40;;;1.10;;
1328;SDS011;658;48.820;9.354;2022-09-16T22:05:31;1.47;;;1.37;;
1328;SDS011;658;48.820;9.354;2022-09-16T22:09:32;0.87;;;0.83;;
1328;SDS011;658;48.820;9.354;2022-09-16T22:13:33;4.43;;;0.90;;
1328;SDS011;658;48.820;9.354;2022-09-16T22:17:34;1.10;;;1.07;;
1328;SDS011;658;48.820;9.354;2022-09-16T22:21:36;1.10;;;1.00;;
1328;SDS011;658;48.820;9.354;2022-09-16T22:25:38;1.60;;;1.30;;
1328;SDS011;658;48.820;9.354;2022-09-16T22:29:39;2.10;;;1.00;;
1328;SDS011;658;48.820;9.354;2022-09-16T22:33:40;1.27;;;1.13;;
1328;SDS011;658;48.820;9.354;2022-09-16T22:37:42;0.80;;;0.80;;
1328;SDS011;658;48.820;9.354;2022-09-16T22:41:43;1.07;;;0.70;;
1328;SDS011;658;48.820;9.354;2022-09-16T22:45:43;1.53;;;1.07;;
1328;SDS011;658;48.820;9.354;2022-09-16T22:49:44;1.13;;;0.97;;
1328;SDS011;658;48.820;9.354;2022-09-16T22:53:44;1.17;;;1.07;;
1328;SDS011;658;48.820;9.354;2022-09-16T22:57:46;0.70;;;0.70;;
1328;SDS011;658;48.820;9.354;2022-09-16T23:01:46;0.97;;;0.93;;
1328;SDS011;658;48.820;9.354;2022-09-16T23:05:58;1.00;;;0.90;;
1328;SDS011;658;48.820;9.354;2022-09-16T23:10:01;0.90;;;0.90;;
1328;SDS011;658;48.820;9.354;2022-09-16T23:14:01;2.30;;;0.80;;
1328;SDS011;658;48.820;9.354;2022-09-16T23:18:05;0.80;;;0.80;;
1328;SDS011;658;48.820;9.354;2022-09-16T23:22:06;0.90;;;0.80;;
1328;SDS011;658;48.820;9.354;2022-09-16T23:26:09;1.10;;;1.00;;
1328;SDS011;658;48.820;9.354;2022-09-16T23:30:14;1.27;;;0.90;;
1328;SDS011;658;48.820;9.354;2022-09-16T23:34:16;1.00;;;0.90;;
1328;SDS011;658;48.820;9.354;2022-09-16T23:38:19;1.00;;;1.00;;
1328;SDS011;658;48.820;9.354;2022-09-16T23:42:20;1.40;;;1.30;;
1328;SDS011;658;48.820;9.354;2022-09-16T23:46:21;0.80;;;0.80;;
1328;SDS011;658;48.820;9.354;2022-09-16T23:50:23;1.37;;;0.93;;
1328;SDS011;658;48.820;9.354;2022-09-16T23:54:23;0.77;;;0.77;;
1328;SDS011;658;48.820;9.354;2022-09-16T23:58:24;0.77;;;0.70;;
